Time;durP1;ratioP1;P1;durP2;ratioP2;P2;SDS_P1;SDS_P2;PMS_P1;PMS_P2;Temp;Humidity;BMP_temperature;BMP_pressure;BME280_temperature;BME280_humidity;BME280_pressure;Samples;Min_cycle;Max_cycle;Signal;HPM_P1;HPM_P2
2022/05/02 00:02:14;;;;;;;4.95;4.20;;;;;;;19.72;41.07;96991.25;10308181;28;20109;-51
2022/05/02 00:07:33;;;;;;;4.97;4.05;;;;;;;19.70;41.18;96989.94;10317383;28;20081;-50
2022/05/02 00:12:53;;;;;;;4.68;4.28;;;;;;;19.69;41.07;96975.63;10324097;28;20055;-51
2022/05/02 00:18:13;;;;;;;4.97;4.25;;;;;;;19.68;41.03;96967.81;10336446;28;20051;-51
2022/05/02 00:23:32;;;;;;;5.10;4.60;;;;;;;19.67;40.97;96961.63;10328848;28;20050;-51
2022/05/02 00:28:52;;;;;;;8.68;4.60;;;;;;;19.67;41.08;96958.16;10318214;28;20073;-49
2022/05/02 00:34:12;;;;;;;5.28;4.35;;;;;;;19.66;41.22;96959.25;10322487;28;20047;-51
2022/05/02 00:39:32;;;;;;;4.78;4.10;;;;;;;19.64;40.99;96962.28;10345419;28;20048;-50
2022/05/02 00:44:51;;;;;;;4.97;4.47;;;;;;;19.64;41.07;96966.88;10342637;28;20045;-51
2022/05/02 00:50:11;;;;;;;4.93;4.43;;;;;;;19.63;41.06;96981.53;10333262;28;20043;-48
2022/05/02 00:55:32;;;;;;;4.80;4.30;;;;;;;19.62;41.06;96980.75;10316545;28;20058;-51
2022/05/02 01:00:52;;;;;;;4.80;4.30;;;;;;;19.62;41.10;96983.44;10310128;28;20065;-50
2022/05/02 01:11:49;;;;;;;5.13;4.17;;;;;;;19.60;40.93;96985.66;10323520;28;20046;-48
2022/05/02 01:17:09;;;;;;;4.68;4.28;;;;;;;19.60;41.07;96971.34;10339495;28;20104;-51
2022/05/02 01:22:29;;;;;;;4.80;4.30;;;;;;;19.60;40.93;96974.03;10327275;28;20501;-51
2022/05/02 01:27:48;;;;;;;4.43;4.03;;;;;;;19.57;40.90;96961.97;10326943;28;20101;-50
2022/05/02 01:33:09;;;;;;;5.00;4.50;;;;;;;19.56;41.01;96961.19;10330792;28;20486;-51
2022/05/02 01:38:28;;;;;;;4.97;4.28;;;;;;;19.55;40.98;96962.28;10328811;28;20489;-49
2022/05/02 01:43:48;;;;;;;4.45;4.05;;;;;;;19.55;40.99;96958.81;10327766;28;20045;-50
2022/05/02 01:49:08;;;;;;;4.38;3.97;;;;;;;19.54;41.08;96952.59;10315980;28;20058;-51
2022/05/02 01:54:27;;;;;;;5.25;4.53;;;;;;;19.53;40.86;96956.41;10307566;28;20058;-51
2022/05/02 01:59:47;;;;;;;4.80;4.30;;;;;;;19.52;40.92;96959.44;10338473;28;20088;-51
2022/05/02 02:10:46;;;;;;;5.20;4.40;;;;;;;19.51;40.97;96952.44;10326960;28;20054;-51
2022/05/02 02:16:09;;;;;;;4.75;4.28;;;;;;;19.50;40.93;96940.03;10325461;28;20395;-51
2022/05/02 02:21:28;;;;;;;5.10;4.55;;;;;;;19.50;40.91;96946.25;10312038;28;20055;-51
2022/05/02 02:26:48;;;;;;;4.63;4.22;;;;;;;19.47;40.81;96941.47;10305260;28;20438;-51
2022/05/02 02:32:07;;;;;;;5.15;4.53;;;;;;;19.49;40.87;96935.75;10319900;28;20386;-51
2022/05/02 02:37:27;;;;;;;4.72;4.22;;;;;;;19.46;40.75;96934.47;10300342;28;20066;-50
2022/05/02 02:42:46;;;;;;;5.10;4.60;;;;;;;19.45;40.77;96930.19;10317371;28;20050;-50
2022/05/02 02:48:06;;;;;;;4.88;4.38;;;;;;;19.45;40.79;96938.31;10329572;28;20054;-49
2022/05/02 02:53:26;;;;;;;4.60;4.20;;;;;;;19.44;40.80;96944.81;10324265;28;20057;-51
2022/05/02 02:58:45;;;;;;;4.63;4.13;;;;;;;19.43;40.89;96929.72;10321729;28;20055;-51
2022/05/02 03:10:05;;;;;;;4.85;4.35;;;;;;;19.42;40.90;96921.94;10181369;29;20056;-51
2022/05/02 03:15:24;;;;;;;4.80;4.40;;;;;;;19.41;40.79;96923.06;10303300;28;20509;-48
2022/05/02 03:20:44;;;;;;;4.35;3.95;;;;;;;19.41;40.86;96920.38;10323559;28;20524;-51
2022/05/02 03:26:03;;;;;;;4.70;4.30;;;;;;;19.40;40.69;96924.94;10311715;28;20062;-51
2022/05/02 03:31:24;;;;;;;4.55;4.15;;;;;;;19.39;40.84;96917.97;10320244;28;20482;-51
2022/05/02 03:36:43;;;;;;;4.63;4.13;;;;;;;19.39;40.82;96917.19;10315368;28;20066;-50
2022/05/02 03:42:03;;;;;;;5.43;4.55;;;;;;;19.37;40.86;96928.31;10306317;28;20058;-51
2022/05/02 03:47:22;;;;;;;5.00;4.50;;;;;;;19.37;40.89;96925.59;10325073;28;20070;-51
2022/05/02 03:52:41;;;;;;;4.82;4.40;;;;;;;19.34;40.89;96932.44;10318190;28;20054;-49
2022/05/02 03:58:02;;;;;;;5.13;4.60;;;;;;;19.36;40.88;96942.91;10325587;28;20050;-50
2022/05/02 04:03:21;;;;;;;4.65;4.25;;;;;;;19.35;40.83;96933.25;10335894;28;20050;-51
2022/05/02 04:08:40;;;;;;;6.10;4.65;;;;;;;19.35;41.40;96939.44;10327766;28;20081;-51
2022/05/02 04:14:00;;;;;;;5.10;4.60;;;;;;;19.35;41.36;96933.25;10342649;28;20054;-51
2022/05/02 04:19:19;;;;;;;5.15;4.50;;;;;;;19.33;41.41;96940.88;10337880;28;20062;-51
2022/05/02 04:24:38;;;;;;;4.55;4.15;;;;;;;19.34;41.43;96943.22;10343070;28;20053;-51
2022/05/02 04:29:58;;;;;;;4.70;4.25;;;;;;;19.34;41.45;96931.63;10341315;28;20054;-51
2022/05/02 04:35:17;;;;;;;4.38;3.97;;;;;;;19.35;41.38;96934.03;10344002;28;20189;-50
2022/05/02 04:40:37;;;;;;;5.78;4.38;;;;;;;19.37;41.03;96936.41;10343875;28;20054;-51
2022/05/02 04:45:56;;;;;;;4.55;4.07;;;;;;;19.39;41.12;96928.78;10337146;28;20413;-51
2022/05/02 04:51:17;;;;;;;4.68;4.28;;;;;;;19.40;41.69;96924.16;10310371;28;20521;-50
2022/05/02 04:56:37;;;;;;;7.00;4.45;;;;;;;19.41;41.87;96931.16;10342299;28;20057;-48
2022/05/02 05:01:58;;;;;;;18.02;6.60;;;;;;;19.42;41.87;96936.22;10340070;28;20069;-50
2022/05/02 05:07:17;;;;;;;14.85;6.55;;;;;;;19.43;41.98;96943.25;10341510;28;20428;-49
2022/05/02 05:13:08;;;;;;;17.10;7.18;;;;;;;19.46;42.18;96939.88;10334345;28;20055;-51
2022/05/02 05:18:36;;;;;;;20.60;7.20;;;;;;;19.49;42.34;96939.25;10316657;28;20058;-50
2022/05/02 05:24:26;;;;;;;16.10;7.43;;;;;;;19.53;42.50;96942.13;10318329;28;20054;-50
2022/05/02 05:30:02;;;;;;;18.33;7.18;;;;;;;19.55;42.56;96959.59;10315923;28;20057;-49
2022/05/02 05:35:59;;;;;;;19.48;7.68;;;;;;;19.58;42.52;96949.25;10319559;28;20388;-51
2022/05/02 05:41:25;;;;;;;13.90;6.55;;;;;;;19.61;42.39;96946.72;10330438;28;20062;-51
2022/05/02 05:46:53;;;;;;;14.75;6.78;;;;;;;19.65;42.38;96946.88;10349312;28;20059;-50
2022/05/02 05:52:42;;;;;;;13.53;6.77;;;;;;;19.68;42.26;96940.81;10320617;28;20042;-49
2022/05/02 05:58:07;;;;;;;15.23;6.82;;;;;;;19.71;42.04;96943.69;10316942;28;20062;-48
2022/05/02 06:03:34;;;;;;;14.95;7.20;;;;;;;19.74;41.91;96940.34;10298697;28;20042;-50
2022/05/02 06:08:57;;;;;;;11.93;6.80;;;;;;;19.75;41.86;96941.13;10314282;28;20077;-51
2022/05/02 06:14:18;;;;;;;13.25;6.88;;;;;;;19.76;41.89;96937.34;10325341;28;20756;-51
2022/05/02 06:19:39;;;;;;;13.88;7.07;;;;;;;19.80;41.75;96942.88;10320215;28;20043;-51
2022/05/02 06:24:59;;;;;;;11.35;6.22;;;;;;;19.81;41.61;96939.84;10327262;28;20521;-51
2022/05/02 06:30:18;;;;;;;14.07;6.55;;;;;;;19.81;41.57;96945.25;10340517;28;20100;-51
2022/05/02 06:35:47;;;;;;;12.90;6.47;;;;;;;19.83;41.50;96945.72;10314158;28;20046;-50
2022/05/02 06:41:18;;;;;;;12.83;6.27;;;;;;;19.85;41.53;96948.91;10330321;28;20383;-51
2022/05/02 06:47:15;;;;;;;10.88;6.20;;;;;;;19.86;41.55;96955.91;10322751;28;20363;-51
2022/05/02 06:53:13;;;;;;;10.02;5.90;;;;;;;19.88;41.63;96953.69;10285588;28;20043;-51
2022/05/02 06:58:38;;;;;;;10.95;5.95;;;;;;;19.89;41.40;96954.47;10342457;28;20039;-51
2022/05/02 07:04:10;;;;;;;10.75;6.35;;;;;;;19.89;41.64;96955.25;10349215;28;20050;-49
2022/05/02 07:09:44;;;;;;;10.10;6.15;;;;;;;19.90;41.57;96959.56;10341946;28;20064;-48
2022/05/02 07:15:21;;;;;;;11.23;6.20;;;;;;;19.93;41.63;96968.94;10345893;28;20054;-50
2022/05/02 07:21:02;;;;;;;10.45;5.97;;;;;;;19.94;41.59;96962.41;10338089;28;20460;-50
2022/05/02 07:26:22;;;;;;;8.38;6.05;;;;;;;19.95;41.80;96967.50;10355043;28;20054;-50
2022/05/02 07:31:43;;;;;;;11.57;6.05;;;;;;;19.96;41.86;96962.88;10336903;28;20046;-50
2022/05/02 07:37:03;;;;;;;8.70;6.22;;;;;;;19.98;41.92;96968.75;10342786;28;20038;-50
2022/05/02 07:42:25;;;;;;;11.73;6.05;;;;;;;19.99;41.95;96969.56;10353784;28;20041;-49
2022/05/02 07:47:47;;;;;;;10.52;5.93;;;;;;;19.97;42.15;96964.47;10339292;28;20073;-51
2022/05/02 07:53:09;;;;;;;12.90;6.38;;;;;;;19.99;42.21;96964.13;10362721;28;20124;-51
2022/05/02 07:58:29;;;;;;;10.90;6.15;;;;;;;19.98;42.23;96963.34;10341699;28;20053;-50
2022/05/02 08:03:50;;;;;;;7.50;5.72;;;;;;;19.99;42.14;96972.25;10360191;28;20039;-50
2022/05/02 08:09:31;;;;;;;13.07;6.00;;;;;;;19.99;42.17;96956.03;10334431;28;20054;-51
2022/05/02 08:15:14;;;;;;;8.50;5.57;;;;;;;20.00;42.34;96958.41;10324478;28;20140;-49
2022/05/02 08:21:06;;;;;;;8.52;6.05;;;;;;;19.99;42.29;96958.72;10318587;28;20046;-48
2022/05/02 08:32:42;;;;;;;8.38;5.70;;;;;;;20.01;42.44;96951.09;10319027;28;20283;-48
2022/05/02 08:38:25;;;;;;;7.60;5.57;;;;;;;20.01;42.43;96953.78;10314705;28;20063;-50
2022/05/02 08:44:23;;;;;;;7.13;5.20;;;;;;;20.01;42.47;96945.69;10358710;28;20050;-50
2022/05/02 08:50:23;;;;;;;6.50;4.97;;;;;;;20.01;42.42;96946.47;10348538;28;20042;-48
2022/05/02 08:56:04;;;;;;;7.15;5.05;;;;;;;20.01;42.46;96943.75;10282991;28;20050;-48
2022/05/02 09:01:29;;;;;;;7.25;5.10;;;;;;;20.02;42.39;96944.56;10316705;28;20058;-50
2022/05/02 09:07:11;;;;;;;6.38;4.63;;;;;;;20.02;42.51;96939.97;10311640;28;20054;-48
2022/05/02 09:13:07;;;;;;;6.65;4.97;;;;;;;20.03;42.54;96946.16;10330469;28;20050;-50
2022/05/02 09:18:35;;;;;;;6.13;4.75;;;;;;;20.03;42.42;96943.44;10334719;28;20521;-49
2022/05/02 09:24:21;;;;;;;7.30;4.50;;;;;;;20.04;42.55;96942.34;10333866;28;20054;-48
2022/05/02 09:29:55;;;;;;;7.13;5.03;;;;;;;20.03;42.45;96935.34;10348306;28;20096;-50
2022/05/02 09:35:38;;;;;;;7.72;4.60;;;;;;;20.04;42.49;96934.22;10321034;28;20077;-48
2022/05/02 09:41:00;;;;;;;5.97;4.50;;;;;;;20.04;42.62;96935.00;10328934;28;20540;-50
2022/05/02 09:52:55;;;;;;;;;;;;;;;20.02;42.66;96926.44;10326055;28;20054;-51
2022/05/02 09:58:34;;;;;;;5.78;4.20;;;;;;;20.01;42.55;96916.72;10303482;28;19922;-50
2022/05/02 10:04:14;;;;;;;10.13;4.53;;;;;;;20.01;42.25;96915.94;10329916;28;20050;-49
2022/05/02 10:09:33;;;;;;;5.60;4.57;;;;;;;19.99;42.14;96915.47;10319355;28;20053;-50
2022/05/02 10:15:27;;;;;;;7.13;4.30;;;;;;;19.99;41.77;96908.13;10320340;28;20079;-51
2022/05/02 10:20:56;;;;;;;7.28;4.93;;;;;;;20.00;41.71;96908.97;10325654;28;20058;-51
2022/05/02 10:26:32;;;;;;;8.95;4.85;;;;;;;19.98;40.91;96900.38;10331481;28;20046;-51
2022/05/02 10:32:05;;;;;;;7.20;5.38;;;;;;;19.97;40.66;96891.44;10335836;28;20088;-51
2022/05/02 10:37:31;;;;;;;6.65;5.32;;;;;;;19.98;40.59;96878.75;10335926;28;20065;-51
2022/05/02 10:42:52;;;;;;;7.68;5.35;;;;;;;19.96;40.04;96884.47;10308918;28;20643;-51
2022/05/02 10:48:17;;;;;;;8.85;5.80;;;;;;;19.92;39.76;96881.63;10318013;28;20089;-51
2022/05/02 10:53:43;;;;;;;6.03;4.95;;;;;;;19.84;39.86;96877.03;10318427;28;20406;-51
2022/05/02 10:59:05;;;;;;;5.72;5.07;;;;;;;19.79;39.27;96861.00;10328179;28;20049;-48
2022/05/02 11:04:52;;;;;;;5.28;4.78;;;;;;;19.78;39.25;96858.59;10317721;28;20050;-51
2022/05/02 11:10:13;;;;;;;5.70;4.30;;;;;;;19.77;39.00;96857.03;10317194;28;20137;-50
2022/05/02 11:15:43;;;;;;;6.45;4.63;;;;;;;19.75;38.64;96854.66;10314311;28;20437;-50
2022/05/02 11:21:36;;;;;;;4.80;4.40;;;;;;;19.73;38.09;96851.47;10326146;28;20413;-51
2022/05/02 11:27:17;;;;;;;4.30;3.83;;;;;;;19.71;38.33;96846.38;10325372;28;20054;-51
2022/05/02 11:33:02;;;;;;;5.78;3.33;;;;;;;19.67;36.89;96836.53;10322518;28;20076;-52
2022/05/02 11:38:40;;;;;;;4.40;3.80;;;;;;;19.67;37.39;96839.22;10327490;28;20108;-51
2022/05/02 11:44:12;;;;;;;4.88;3.53;;;;;;;19.64;36.41;96827.16;10336672;28;20509;-52
2022/05/02 11:49:46;;;;;;;3.03;2.75;;;;;;;19.59;35.62;96824.63;10330066;28;20524;-51
2022/05/02 11:55:07;;;;;;;4.35;2.80;;;;;;;19.61;36.95;96824.31;10327971;28;20046;-51
2022/05/02 12:00:32;;;;;;;3.78;2.97;;;;;;;19.66;37.70;96824.13;10323286;28;20049;-50
2022/05/02 12:06:04;;;;;;;5.47;3.40;;;;;;;19.68;38.23;96816.47;10321802;28;20038;-52
2022/05/02 12:11:23;;;;;;;5.43;3.35;;;;;;;19.70;38.65;96814.28;10341626;28;20045;-51
2022/05/02 12:17:02;;;;;;;10.07;4.18;;;;;;;19.72;39.30;96812.06;10335949;28;20067;-53
2022/05/02 12:22:26;;;;;;;10.60;4.97;;;;;;;19.73;39.53;96806.31;10338668;28;20100;-50
2022/05/02 12:27:48;;;;;;;9.05;4.45;;;;;;;19.74;39.83;96816.03;10306231;28;20197;-52
2022/05/02 12:33:08;;;;;;;6.80;3.92;;;;;;;19.75;39.72;96816.81;10318611;28;20398;-50
2022/05/02 12:38:28;;;;;;;4.57;3.30;;;;;;;19.73;39.15;96802.81;10309906;28;20058;-53
2022/05/02 12:43:52;;;;;;;7.90;4.15;;;;;;;19.74;40.40;96804.41;10337858;28;20046;-53
2022/05/02 12:49:26;;;;;;;5.43;3.55;;;;;;;19.75;40.50;96806.00;10342577;28;20062;-53
2022/05/02 12:54:48;;;;;;;8.40;3.88;;;;;;;19.75;40.57;96803.28;10326056;28;20428;-50
2022/05/02 13:00:36;;;;;;;7.40;3.75;;;;;;;19.75;40.79;96803.28;10347604;28;20478;-51
2022/05/02 13:05:59;;;;;;;8.55;3.95;;;;;;;19.76;40.86;96794.06;10338889;28;20046;-53
2022/05/02 13:11:21;;;;;;;6.60;3.83;;;;;;;19.76;41.03;96788.66;10337425;28;20084;-54
2022/05/02 13:16:43;;;;;;;7.47;3.72;;;;;;;19.77;41.29;96786.75;10321757;28;20062;-50
2022/05/02 13:22:04;;;;;;;6.43;4.45;;;;;;;19.78;41.70;96774.81;10336963;28;20050;-54
2022/05/02 13:27:32;;;;;;;7.22;4.15;;;;;;;19.79;42.21;96766.38;10330468;28;20058;-50
2022/05/02 13:32:59;;;;;;;6.70;3.88;;;;;;;19.81;42.32;96764.13;10333370;28;20556;-53
2022/05/02 13:38:27;;;;;;;5.57;3.80;;;;;;;19.81;42.59;96756.03;10300776;28;20125;-53
2022/05/02 13:44:08;;;;;;;4.57;3.33;;;;;;;19.81;42.78;96750.63;10329474;28;20050;-53
2022/05/02 13:49:41;;;;;;;5.00;3.47;;;;;;;19.83;42.89;96742.97;10329320;28;20063;-53
2022/05/02 13:55:06;;;;;;;4.15;3.63;;;;;;;19.84;43.01;96730.28;10319676;28;20054;-54
2022/05/02 14:06:06;;;;;;;7.57;4.00;;;;;;;19.84;43.03;96739.16;10332799;28;20047;-52
2022/05/02 14:11:28;;;;;;;6.82;3.67;;;;;;;19.86;43.39;96736.16;10331113;28;20436;-53
2022/05/02 14:16:47;;;;;;;4.38;3.35;;;;;;;19.86;43.42;96730.75;10332446;28;20066;-52
2022/05/02 14:22:07;;;;;;;4.35;3.50;;;;;;;19.87;43.40;96722.28;10332513;28;20436;-52
2022/05/02 14:27:30;;;;;;;5.10;3.20;;;;;;;19.89;43.45;96727.38;10330034;28;20054;-52
2022/05/02 14:32:49;;;;;;;6.00;3.58;;;;;;;19.89;43.51;96720.03;10334622;28;20046;-52
2022/05/02 14:38:14;;;;;;;4.72;3.50;;;;;;;19.93;43.34;96720.19;10298320;28;20394;-52
2022/05/02 14:43:34;;;;;;;4.85;3.30;;;;;;;19.94;43.55;96714.44;10296709;28;20050;-52
2022/05/02 14:48:56;;;;;;;3.95;3.25;;;;;;;19.98;43.55;96709.19;10312479;28;20051;-52
2022/05/02 14:54:16;;;;;;;4.03;3.30;;;;;;;20.01;43.67;96711.22;10325080;28;20058;-53
2022/05/02 14:59:36;;;;;;;4.00;3.60;;;;;;;20.01;43.71;96699.59;10332472;28;20058;-50
2022/05/02 15:05:02;;;;;;;5.05;3.30;;;;;;;20.01;43.90;96700.38;10327689;28;20089;-52
2022/05/02 15:10:46;;;;;;;5.88;3.20;;;;;;;20.00;43.85;96695.34;10345688;28;20080;-51
2022/05/02 15:16:21;;;;;;;4.47;3.20;;;;;;;19.99;43.81;96701.84;10321860;28;20533;-51
2022/05/02 15:21:42;;;;;;;4.90;2.90;;;;;;;19.96;43.86;96703.31;10331532;28;20057;-52
2022/05/02 15:27:01;;;;;;;5.00;2.85;;;;;;;19.93;44.03;96699.34;10331410;28;20097;-52
2022/05/02 15:38:19;;;;;;;3.15;2.80;;;;;;;19.90;43.94;96708.13;10328886;28;20073;-50
2022/05/02 15:43:39;;;;;;;4.25;2.80;;;;;;;19.89;43.76;96708.44;10379783;28;20512;-53
2022/05/02 15:49:10;;;;;;;5.30;3.25;;;;;;;19.88;43.88;96706.88;10335498;28;20529;-53
2022/05/02 15:54:29;;;;;;;4.68;2.80;;;;;;;19.87;44.25;96711.47;10330927;28;20065;-52
2022/05/02 15:59:49;;;;;;;5.28;2.72;;;;;;;19.88;44.26;96718.47;10298343;28;20054;-50
2022/05/02 16:05:16;;;;;;;5.80;2.92;;;;;;;19.88;44.32;96715.75;10291144;28;20054;-52
2022/05/02 16:10:40;;;;;;;4.00;2.92;;;;;;;19.88;44.22;96721.16;10329374;28;20508;-50
2022/05/02 16:16:00;;;;;;;3.35;2.95;;;;;;;19.89;44.25;96728.16;10329627;28;20405;-53
2022/05/02 16:21:22;;;;;;;6.35;3.33;;;;;;;19.87;44.09;96727.69;10338505;28;20531;-50
2022/05/02 16:26:42;;;;;;;4.20;3.05;;;;;;;19.86;44.07;96726.13;10332558;28;20039;-53
2022/05/02 16:32:02;;;;;;;4.00;3.60;;;;;;;19.87;44.68;96721.50;10331288;28;20065;-53
2022/05/02 16:37:22;;;;;;;4.40;3.20;;;;;;;19.85;44.15;96721.03;10330917;28;20067;-53
2022/05/02 16:42:42;;;;;;;3.70;3.10;;;;;;;19.85;44.15;96721.03;10329903;28;20390;-51
2022/05/02 16:48:09;;;;;;;3.70;2.72;;;;;;;19.85;43.95;96731.84;10328813;28;20069;-51
2022/05/02 16:53:29;;;;;;;4.00;3.28;;;;;;;19.84;44.06;96722.94;10329890;28;20046;-51
2022/05/02 16:58:49;;;;;;;4.15;3.00;;;;;;;19.83;43.86;96715.16;10333677;28;20092;-53
2022/05/02 17:04:10;;;;;;;3.55;3.00;;;;;;;19.84;44.03;96711.34;10338050;28;20062;-56
2022/05/02 17:09:30;;;;;;;3.50;3.17;;;;;;;19.83;43.56;96715.16;10336899;28;20509;-50
2022/05/02 17:14:50;;;;;;;5.95;3.60;;;;;;;19.82;43.55;96714.38;10335037;28;20050;-62
2022/05/02 17:20:09;;;;;;;3.50;3.13;;;;;;;19.80;43.56;96713.09;10322074;28;20141;-61
2022/05/02 17:25:29;;;;;;;3.33;2.75;;;;;;;19.79;43.44;96720.44;10356455;28;20054;-54
2022/05/02 17:30:48;;;;;;;3.45;3.08;;;;;;;19.78;43.45;96720.75;10362890;28;20531;-53
2022/05/02 17:36:08;;;;;;;3.67;2.80;;;;;;;19.77;43.41;96721.88;10361399;28;20054;-54
2022/05/02 17:41:28;;;;;;;2.78;2.53;;;;;;;19.75;43.29;96739.19;10349085;28;20105;-54
2022/05/02 17:46:54;;;;;;;4.63;2.72;;;;;;;19.74;43.55;96750.38;10370038;28;20061;-58
2022/05/02 17:52:14;;;;;;;3.03;2.72;;;;;;;19.74;43.31;96747.66;10343027;28;20057;-57
2022/05/02 17:57:34;;;;;;;3.65;2.83;;;;;;;19.73;43.24;96749.56;10320013;28;20465;-55
2022/05/02 18:02:53;;;;;;;3.38;2.97;;;;;;;19.72;43.23;96744.50;10295050;28;20055;-61
2022/05/02 18:08:16;;;;;;;3.35;3.05;;;;;;;19.72;43.39;96744.50;10329119;28;20482;-52
2022/05/02 18:13:44;;;;;;;3.92;3.03;;;;;;;19.70;43.24;96733.19;10336967;28;20054;-53
2022/05/02 18:19:10;;;;;;;4.30;2.92;;;;;;;19.69;43.33;96732.38;10334881;28;20073;-52
2022/05/02 18:24:41;;;;;;;3.25;2.70;;;;;;;19.69;43.21;96732.38;10335098;28;20144;-52
2022/05/02 18:30:03;;;;;;;4.65;2.88;;;;;;;19.70;43.40;96736.66;10330690;28;20197;-50
2022/05/02 18:41:19;;;;;;;4.13;2.67;;;;;;;19.68;43.53;96741.63;10325913;28;20050;-52
2022/05/02 18:58:03;;;;;;;3.80;2.75;;;;;;;19.66;43.36;96765.47;10327429;28;20050;-51
2022/05/02 19:03:24;;;;;;;5.03;2.80;;;;;;;19.66;43.72;96775.47;10317270;28;20057;-52
2022/05/02 19:08:44;;;;;;;3.85;2.97;;;;;;;19.67;44.11;96772.44;10328809;28;20069;-52
2022/05/02 19:14:06;;;;;;;4.60;2.90;;;;;;;19.67;43.82;96768.97;10327520;28;20421;-53
2022/05/02 19:19:25;;;;;;;5.07;3.35;;;;;;;19.65;44.09;96777.38;10343423;28;20081;-51
2022/05/02 19:25:01;;;;;;;6.13;3.00;;;;;;;19.65;44.28;96773.91;10328648;28;20042;-56
2022/05/02 19:30:24;;;;;;;3.53;3.17;;;;;;;19.65;44.68;96779.31;10340619;28;20046;-53
2022/05/02 19:41:27;;;;;;;5.60;3.20;;;;;;;19.67;44.80;96785.19;10327739;28;20058;-50
2022/05/02 19:46:53;;;;;;;6.32;2.90;;;;;;;19.66;44.98;96781.69;10322923;28;20416;-53
2022/05/02 19:52:14;;;;;;;4.47;2.75;;;;;;;19.65;45.21;96780.09;10315563;28;20054;-50
2022/05/02 19:57:35;;;;;;;3.88;2.80;;;;;;;19.65;45.53;96780.09;10326183;28;20482;-50
2022/05/02 20:02:57;;;;;;;3.65;2.97;;;;;;;19.65;45.67;96773.91;10310814;28;20089;-50
2022/05/02 20:08:19;;;;;;;4.28;2.88;;;;;;;19.65;45.78;96760.38;10323211;28;20470;-53
2022/05/02 20:13:38;;;;;;;4.05;2.97;;;;;;;19.64;45.75;96762.31;10334057;28;20062;-53
2022/05/02 20:18:58;;;;;;;4.50;2.88;;;;;;;19.63;45.76;96759.91;10319386;28;20446;-51
2022/05/02 20:24:22;;;;;;;3.55;2.78;;;;;;;19.62;46.03;96750.22;10318690;28;20046;-53
2022/05/02 20:29:43;;;;;;;3.45;2.83;;;;;;;19.62;46.04;96752.91;10341716;28;20053;-52
2022/05/02 20:40:51;;;;;;;4.03;2.92;;;;;;;19.61;45.99;96745.94;10324973;28;20058;-50
2022/05/02 20:46:11;;;;;;;4.70;2.90;;;;;;;19.61;46.09;96754.06;10329802;28;20054;-52
2022/05/02 20:51:32;;;;;;;2.60;2.40;;;;;;;19.59;46.13;96748.97;10329262;28;20050;-52
2022/05/02 20:56:52;;;;;;;3.90;2.75;;;;;;;19.60;46.23;96752.44;10333771;28;20046;-52
2022/05/02 21:02:13;;;;;;;2.80;2.38;;;;;;;19.60;46.32;96749.75;10334421;28;20425;-52
2022/05/02 21:07:33;;;;;;;3.13;2.83;;;;;;;19.59;46.26;96753.59;10334180;28;20108;-52
2022/05/02 21:13:09;;;;;;;4.20;2.70;;;;;;;19.59;46.35;96750.88;10328585;28;20050;-52
2022/05/02 21:19:16;;;;;;;3.10;2.70;;;;;;;19.58;46.59;96763.56;10318487;28;20146;-52
2022/05/02 21:25:00;;;;;;;3.13;2.50;;;;;;;19.58;46.56;96754.69;10258581;28;20066;-49
2022/05/02 21:30:24;;;;;;;2.88;2.58;;;;;;;19.58;46.48;96749.28;10331647;28;20556;-53
2022/05/02 21:35:45;;;;;;;3.22;2.45;;;;;;;19.56;46.38;96750.41;10328861;28;20050;-50
2022/05/02 21:41:05;;;;;;;3.42;2.40;;;;;;;19.56;46.46;96747.72;10328803;28;20050;-50
2022/05/02 21:46:24;;;;;;;2.55;2.35;;;;;;;19.55;46.58;96740.72;10328894;28;20482;-51
2022/05/02 21:51:43;;;;;;;3.35;2.40;;;;;;;19.54;46.54;96743.72;10325218;28;20502;-50
2022/05/02 21:57:05;;;;;;;3.83;2.55;;;;;;;19.54;46.58;96743.72;10342061;28;20409;-53
2022/05/02 22:02:24;;;;;;;3.08;2.58;;;;;;;19.53;46.41;96740.25;10336541;28;20042;-52
2022/05/02 22:07:44;;;;;;;2.83;2.45;;;;;;;19.53;46.57;96736.75;10326408;28;20077;-53
2022/05/02 22:13:03;;;;;;;2.72;2.50;;;;;;;19.53;46.42;96739.47;10332649;28;20054;-53
2022/05/02 22:18:23;;;;;;;2.67;2.45;;;;;;;19.53;46.41;96748.34;10342260;28;20054;-49
2022/05/02 22:23:42;;;;;;;2.38;2.17;;;;;;;19.52;46.46;96744.06;10341305;28;20085;-53
2022/05/02 22:29:02;;;;;;;3.22;2.33;;;;;;;19.51;46.52;96741.69;10345755;28;20077;-53
2022/05/02 22:34:21;;;;;;;3.03;2.30;;;;;;;19.50;46.52;96746.31;10307304;28;20058;-51
2022/05/02 22:39:40;;;;;;;2.45;2.25;;;;;;;19.50;46.52;96746.31;10310570;28;20125;-52
2022/05/02 22:45:00;;;;;;;2.88;2.60;;;;;;;19.49;46.46;96738.53;10345719;28;20088;-50
2022/05/02 22:50:19;;;;;;;4.03;2.20;;;;;;;19.48;46.40;96748.56;10309081;28;20107;-52
2022/05/02 22:55:40;;;;;;;2.38;2.00;;;;;;;19.46;46.47;96739.94;10328526;28;20119;-52
2022/05/02 23:01:06;;;;;;;2.58;2.38;;;;;;;19.47;46.38;96741.53;10343871;28;20050;-50
2022/05/02 23:06:50;;;;;;;2.38;2.17;;;;;;;19.47;46.41;96738.06;10323991;28;20570;-50
2022/05/02 23:12:11;;;;;;;2.38;2.17;;;;;;;19.47;46.31;96732.66;10314452;28;20058;-51
2022/05/02 23:17:31;;;;;;;3.08;2.45;;;;;;;19.46;46.24;96731.84;10316108;28;20050;-52
2022/05/02 23:22:51;;;;;;;2.65;2.40;;;;;;;19.45;46.44;96722.16;10317340;28;20102;-52
2022/05/02 23:28:12;;;;;;;6.82;3.15;;;;;;;19.43;46.53;96719.00;10319270;28;20039;-52
2022/05/02 23:33:41;;;;;;;2.60;2.40;;;;;;;19.44;46.44;96719.78;10322275;28;20489;-50
2022/05/02 23:39:06;;;;;;;2.60;2.40;;;;;;;19.44;46.37;96714.38;10319775;28;20529;-51
2022/05/02 23:44:52;;;;;;;2.65;2.40;;;;;;;19.43;46.26;96716.31;10318669;28;20637;-53
2022/05/02 23:50:14;;;;;;;2.55;2.35;;;;;;;19.42;46.33;96703.91;10307467;28;20046;-50
2022/05/02 23:55:57;;;;;;;2.80;2.55;;;;;;;19.42;46.31;96701.19;10314884;28;20108;-50
